ROLR03 YMES-YMES
Flight info
| Callsign | ROLR03 |
|---|---|
| Flight time | 0h 30m |
| Altitude | 12500 |
| Route | ESL220040 DCT ESL270040 DCT ESL310040 DCT ESL359040 DCT ESL040040 DCT ESL090040 DCT ESL120040 DCT ESL170040 |
| Aircraft | PC21/L-SDFGRWY/S |
Departure
| Time | 2026-04-27 00:50 |
|---|---|
| Airport | RAAF Base East Sale (YMES) |
Arrival
| Time | 2026-04-27 01:21 |
|---|---|
| Airport | RAAF Base East Sale (YMES) |
| Time | Latitude | Longitude | Altitude | Speed | Heading |
|---|---|---|---|---|---|
| 2026-04-27 00:46 | -38.09966 | 147.15296 | 27 ft | 0 kts | 33° |
| 2026-04-27 00:48 | -38.09961 | 147.15302 | 25 ft | 6 kts | 36° |
| 2026-04-27 00:48 | -38.09909 | 147.15326 | 25 ft | 8 kts | 8° |
| 2026-04-27 00:48 | -38.09874 | 147.15311 | 25 ft | 0 kts | 279° |
| 2026-04-27 00:49 | -38.09855 | 147.15164 | 22 ft | 58 kts | 281° |
| 2026-04-27 00:49 | -38.09750 | 147.14301 | 115 ft | 128 kts | 278° |
| 2026-04-27 00:50 | -38.09570 | 147.12946 | 537 ft | 178 kts | 280° |
| 2026-04-27 00:50 | -38.07603 | 147.11509 | 1940 ft | 225 kts | 33° |
| 2026-04-27 00:50 | -38.06854 | 147.13183 | 2827 ft | 242 kts | 71° |
| 2026-04-27 00:51 | -38.06308 | 147.15309 | 3140 ft | 265 kts | 75° |
| 2026-04-27 00:51 | -38.05877 | 147.17741 | 3477 ft | 282 kts | 81° |
| 2026-04-27 00:51 | -38.05876 | 147.17747 | 3479 ft | 282 kts | 81° |
| 2026-04-27 00:53 | -38.05764 | 147.19859 | 4214 ft | 279 kts | 90° |
| 2026-04-27 00:53 | -38.05810 | 147.22171 | 4907 ft | 281 kts | 94° |
| 2026-04-27 00:53 | -38.06015 | 147.24504 | 5400 ft | 290 kts | 91° |
| 2026-04-27 00:56 | -38.05965 | 147.25375 | 5467 ft | 295 kts | 79° |
| 2026-04-27 01:00 | -38.05874 | 147.25881 | 5505 ft | 296 kts | 73° |
| 2026-04-27 01:01 | -38.04898 | 147.28149 | 5625 ft | 291 kts | 49° |
| 2026-04-27 01:01 | -38.03410 | 147.29835 | 5840 ft | 283 kts | 29° |
| 2026-04-27 01:01 | -38.02959 | 147.30108 | 5852 ft | 282 kts | 17° |
| 2026-04-27 01:03 | -38.01564 | 147.30226 | 5586 ft | 291 kts | 347° |
| 2026-04-27 01:03 | -37.99737 | 147.29212 | 5817 ft | 279 kts | 346° |
| 2026-04-27 01:03 | -37.99206 | 147.29140 | 5964 ft | 280 kts | 0° |
| 2026-04-27 01:04 | -37.97429 | 147.29885 | 6810 ft | 237 kts | 34° |
| 2026-04-27 01:04 | -37.96970 | 147.31486 | 6317 ft | 181 kts | 159° |
| 2026-04-27 01:04 | -37.98488 | 147.30335 | 5493 ft | 259 kts | 176° |
| 2026-04-27 01:04 | -38.00173 | 147.29313 | 3966 ft | 318 kts | 220° |
| 2026-04-27 01:05 | -38.01807 | 147.30356 | 3883 ft | 316 kts | 105° |
| 2026-04-27 01:05 | -38.01958 | 147.32948 | 4942 ft | 272 kts | 113° |
| 2026-04-27 01:05 | -38.03428 | 147.34416 | 4366 ft | 303 kts | 191° |
| 2026-04-27 01:05 | -38.04530 | 147.32375 | 3995 ft | 304 kts | 272° |
| 2026-04-27 01:06 | -38.04513 | 147.29693 | 4070 ft | 301 kts | 271° |
| 2026-04-27 01:06 | -38.04533 | 147.27028 | 4043 ft | 302 kts | 270° |
| 2026-04-27 01:06 | -38.04589 | 147.24393 | 4229 ft | 297 kts | 269° |
| 2026-04-27 01:06 | -38.04661 | 147.21780 | 4315 ft | 296 kts | 269° |
| 2026-04-27 01:07 | -38.04768 | 147.19151 | 4272 ft | 300 kts | 268° |
| 2026-04-27 01:07 | -38.04901 | 147.16496 | 4294 ft | 301 kts | 268° |
| 2026-04-27 01:07 | -38.05267 | 147.13929 | 4339 ft | 303 kts | 247° |
| 2026-04-27 01:07 | -38.06310 | 147.11584 | 4287 ft | 307 kts | 242° |
| 2026-04-27 01:08 | -38.07406 | 147.09251 | 4244 ft | 308 kts | 240° |
| 2026-04-27 01:08 | -38.08606 | 147.06985 | 4133 ft | 312 kts | 234° |
| 2026-04-27 01:08 | -38.10217 | 147.04981 | 3180 ft | 337 kts | 220° |
| 2026-04-27 01:08 | -38.11987 | 147.03025 | 2375 ft | 338 kts | 228° |
| 2026-04-27 01:09 | -38.13116 | 147.00463 | 1823 ft | 332 kts | 252° |
| 2026-04-27 01:09 | -38.13365 | 146.97575 | 1302 ft | 331 kts | 286° |
| 2026-04-27 01:09 | -38.11632 | 146.96022 | 758 ft | 334 kts | 4° |
| 2026-04-27 01:09 | -38.09361 | 146.96480 | 629 ft | 325 kts | 8° |
| 2026-04-27 01:10 | -38.08379 | 146.96622 | 4550 ft | 81 kts | 198° |
| 2026-04-27 01:10 | -38.08764 | 146.96437 | 2389 ft | 218 kts | 4° |
| 2026-04-27 01:10 | -38.06998 | 146.95209 | 1027 ft | 316 kts | 282° |
| 2026-04-27 01:10 | -38.08454 | 146.94604 | 544 ft | 314 kts | 128° |
| 2026-04-27 01:11 | -38.09124 | 146.97193 | 565 ft | 301 kts | 107° |
| 2026-04-27 01:11 | -38.09437 | 146.98875 | 3286 ft | 50 kts | 272° |
| 2026-04-27 01:11 | -38.09291 | 146.97689 | 1942 ft | 218 kts | 282° |
| 2026-04-27 01:11 | -38.08950 | 146.95332 | 1923 ft | 112 kts | 275° |
| 2026-04-27 01:12 | -38.09078 | 146.96145 | 3611 ft | 146 kts | 83° |
| 2026-04-27 01:12 | -38.09037 | 146.98366 | 1079 ft | 315 kts | 26° |
| 2026-04-27 01:12 | -38.08595 | 146.96782 | 689 ft | 302 kts | 195° |
| 2026-04-27 01:12 | -38.09007 | 146.96660 | 4627 ft | 55 kts | 24° |
| 2026-04-27 01:13 | -38.08765 | 146.97004 | 3018 ft | 38 kts | 183° |
| 2026-04-27 01:13 | -38.10224 | 146.96454 | 997 ft | 278 kts | 225° |
| 2026-04-27 01:13 | -38.10346 | 146.94256 | 1160 ft | 277 kts | 325° |
| 2026-04-27 01:13 | -38.08894 | 146.95170 | 921 ft | 287 kts | 90° |
| 2026-04-27 01:14 | -38.08848 | 146.97091 | 1134 ft | 269 kts | 117° |
| 2026-04-27 01:14 | -38.07896 | 146.98370 | 941 ft | 281 kts | 347° |
| 2026-04-27 01:14 | -38.07907 | 146.96917 | 392 ft | 287 kts | 195° |
| 2026-04-27 01:14 | -38.08937 | 146.96593 | 2935 ft | 122 kts | 359° |
| 2026-04-27 01:15 | -38.09209 | 146.96537 | 529 ft | 250 kts | 193° |
| 2026-04-27 01:15 | -38.10887 | 146.96108 | 1403 ft | 234 kts | 194° |
| 2026-04-27 01:15 | -38.12535 | 146.95907 | 2090 ft | 252 kts | 172° |
| 2026-04-27 01:15 | -38.14181 | 146.96974 | 2053 ft | 284 kts | 141° |
| 2026-04-27 01:16 | -38.15541 | 146.98887 | 2026 ft | 296 kts | 134° |
| 2026-04-27 01:16 | -38.16666 | 147.01084 | 2044 ft | 305 kts | 112° |
| 2026-04-27 01:16 | -38.17249 | 147.03690 | 2098 ft | 308 kts | 109° |
| 2026-04-27 01:16 | -38.17850 | 147.06310 | 2160 ft | 310 kts | 105° |
| 2026-04-27 01:17 | -38.18188 | 147.09044 | 2148 ft | 314 kts | 102° |
| 2026-04-27 01:17 | -38.18435 | 147.11803 | 2025 ft | 319 kts | 91° |
| 2026-04-27 01:17 | -38.17923 | 147.14593 | 1533 ft | 331 kts | 70° |
| 2026-04-27 01:17 | -38.16724 | 147.17068 | 1455 ft | 327 kts | 54° |
| 2026-04-27 01:18 | -38.15361 | 147.19355 | 1499 ft | 322 kts | 57° |
| 2026-04-27 01:18 | -38.13733 | 147.21207 | 1490 ft | 319 kts | 26° |
| 2026-04-27 01:18 | -38.11630 | 147.21443 | 1533 ft | 314 kts | 337° |
| 2026-04-27 01:18 | -38.10490 | 147.19186 | 1025 ft | 325 kts | 281° |
| 2026-04-27 01:19 | -38.10146 | 147.16402 | 981 ft | 321 kts | 281° |
| 2026-04-27 01:19 | -38.09727 | 147.13659 | 1103 ft | 308 kts | 302° |
| 2026-04-27 01:19 | -38.08498 | 147.14167 | 948 ft | 212 kts | 89° |
| 2026-04-27 01:19 | -38.08612 | 147.15854 | 1062 ft | 165 kts | 98° |
| 2026-04-27 01:20 | -38.08793 | 147.17153 | 1025 ft | 140 kts | 128° |
| 2026-04-27 01:20 | -38.09697 | 147.17295 | 628 ft | 145 kts | 217° |
| 2026-04-27 01:20 | -38.09976 | 147.16154 | 204 ft | 136 kts | 279° |
| 2026-04-27 01:20 | -38.09845 | 147.15073 | 24 ft | 110 kts | 280° |
| 2026-04-27 01:21 | -38.09749 | 147.14300 | 25 ft | 65 kts | 278° |
| 2026-04-27 01:21 | -38.09693 | 147.13846 | 28 ft | 45 kts | 278° |
| 2026-04-27 01:21 | -38.09659 | 147.13569 | 25 ft | 19 kts | 282° |
| 2026-04-27 01:21 | -38.09717 | 147.13489 | 26 ft | 13 kts | 187° |
| 2026-04-27 01:22 | -38.09830 | 147.13467 | 26 ft | 17 kts | 187° |
| 2026-04-27 01:22 | -38.09867 | 147.13544 | 26 ft | 12 kts | 100° |
| 2026-04-27 01:22 | -38.09880 | 147.13653 | 29 ft | 9 kts | 98° |
| 2026-04-27 01:22 | -38.09901 | 147.13669 | 28 ft | 4 kts | 189° |
| 2026-04-27 01:23 | -38.09911 | 147.13667 | 27 ft | 0 kts | 190° |